Time;durP1;ratioP1;P1;durP2;ratioP2;P2;SDS_P1;SDS_P2;PMS_P1;PMS_P2;Temp;Humidity;BMP_temperature;BMP_pressure;BME280_temperature;BME280_humidity;BME280_pressure;Samples;Min_cycle;Max_cycle;Signal;HPM_P1;HPM_P2
2022/05/01 00:02:03;;;;;;;;;;;;;;;16.62;43.32;99894.00;5402749;26;34072;-89
2022/05/01 00:04:34;;;;;;;;;;;;;;;16.55;43.95;99895.13;5402692;26;34010;-90
2022/05/01 00:07:03;;;;;;;;;;;;;;;16.45;44.27;99896.31;5408472;26;35565;-87
2022/05/01 00:09:35;;;;;;;;;;;;;;;16.60;44.13;99895.81;5407629;26;34389;-89
2022/05/01 00:12:04;;;;;;;;;;;;;;;16.58;44.64;99895.00;5403605;26;33066;-88
2022/05/01 00:14:32;;;;;;;;;;;;;;;16.78;42.99;99885.59;5405855;26;34929;-89
2022/05/01 00:17:02;;;;;;;;;;;;;;;16.64;43.51;99886.91;5403710;26;35025;-88
2022/05/01 00:19:30;;;;;;;;;;;;;;;16.67;43.73;99890.34;5403015;26;33757;-89
2022/05/01 00:22:20;;;;;;;;;;;;;;;16.70;43.36;99883.25;5407336;26;33375;-88
2022/05/01 00:24:49;;;;;;;;;;;;;;;16.61;44.17;99888.81;5401207;26;33848;-89
2022/05/01 00:27:17;;;;;;;;;;;;;;;16.58;44.44;99883.69;5402115;26;34241;-88
2022/05/01 00:29:46;;;;;;;;;;;;;;;16.70;44.73;99891.09;5402403;26;34470;-88
2022/05/01 00:32:15;;;;;;;;;;;;;;;16.64;44.35;99875.59;5403922;26;33249;-88
2022/05/01 00:37:31;;;;;;;;;;;;;;;16.56;44.76;99888.97;5408263;26;33886;-88
2022/05/01 00:40:00;;;;;;;;;;;;;;;16.60;44.71;99893.19;5402055;26;34696;-89
2022/05/01 00:42:28;;;;;;;;;;;;;;;16.53;44.89;99894.31;5403519;26;33350;-89
2022/05/01 00:44:57;;;;;;;;;;;;;;;16.59;44.26;99885.38;5401964;26;34402;-88
2022/05/01 00:47:26;;;;;;;;;;;;;;;16.54;44.70;99887.31;5401867;26;35611;-88
2022/05/01 00:49:54;;;;;;;;;;;;;;;16.60;44.59;99887.09;5408163;26;34440;-89
2022/05/01 00:52:25;;;;;;;;;;;;;;;16.49;44.75;99887.47;5402909;26;34053;-89
2022/05/01 00:58:29;;;;;;;;;;;;;;;16.74;44.31;99890.06;5331391;26;33572;-90
2022/05/01 01:01:29;;;;;;;;;;;;;;;16.61;45.13;99884.41;5332125;26;34376;-90
2022/05/01 01:04:12;;;;;;;;;;;;;;;16.51;45.82;99888.25;5328214;26;33954;-89
2022/05/01 01:06:40;;;;;;;;;;;;;;;16.51;45.71;99892.66;5332864;26;34291;-89
2022/05/01 01:09:10;;;;;;;;;;;;;;;16.53;45.70;99883.84;5332096;26;34185;-90
2022/05/01 01:11:39;;;;;;;;;;;;;;;16.50;46.02;99891.78;5313879;26;34435;-89
2022/05/01 01:14:09;;;;;;;;;;;;;;;16.57;45.90;99890.66;5337224;26;33985;-88
2022/05/01 01:16:38;;;;;;;;;;;;;;;16.59;44.92;99894.09;5331969;26;33150;-89
2022/05/01 01:19:09;;;;;;;;;;;;;;;16.50;45.06;99893.53;5334349;26;34155;-89
2022/05/01 01:21:39;;;;;;;;;;;;;;;16.40;45.81;99887.75;5332163;26;33936;-89
2022/05/01 01:24:09;;;;;;;;;;;;;;;16.50;45.19;99891.78;5333884;26;33911;-90
2022/05/01 01:26:38;;;;;;;;;;;;;;;16.40;45.91;99891.22;5339050;26;33750;-89
2022/05/01 01:31:40;;;;;;;;;;;;;;;16.37;46.24;99890.50;5332393;26;33876;-89
2022/05/01 01:31:55;;;;;;;;;;;;;;;16.30;46.41;99895.06;5350738;26;34465;-89
2022/05/01 01:34:25;;;;;;;;;;;;;;;16.43;45.81;99892.91;5403836;26;33944;-89
2022/05/01 01:36:55;;;;;;;;;;;;;;;16.39;46.02;99891.31;5402948;26;33918;-88
2022/05/01 01:39:25;;;;;;;;;;;;;;;16.36;45.98;99891.41;5403097;26;34214;-89
2022/05/01 01:41:55;;;;;;;;;;;;;;;16.48;45.88;99887.50;5388545;26;34822;-89
2022/05/01 01:44:24;;;;;;;;;;;;;;;16.49;44.95;99884.00;5404106;26;32545;-89
2022/05/01 01:46:53;;;;;;;;;;;;;;;16.45;46.04;99888.47;5404515;26;34151;-89
2022/05/01 01:49:21;;;;;;;;;;;;;;;16.37;46.23;99893.13;5404340;26;34101;-89
2022/05/01 01:51:50;;;;;;;;;;;;;;;16.38;45.99;99887.84;5404823;26;33840;-90
2022/05/01 01:54:20;;;;;;;;;;;;;;;16.33;46.22;99883.62;5411519;26;34190;-90
2022/05/01 01:56:48;;;;;;;;;;;;;;;16.41;45.92;99884.25;5404418;26;34937;-90
2022/05/01 01:59:17;;;;;;;;;;;;;;;16.41;45.87;99889.50;5404409;26;34391;-89
2022/05/01 02:01:45;;;;;;;;;;;;;;;16.38;44.88;99884.34;5404287;26;34112;-88
2022/05/01 02:04:14;;;;;;;;;;;;;;;16.36;46.11;99878.31;5404492;26;33957;-89
2022/05/01 02:06:44;;;;;;;;;;;;;;;16.31;46.43;99886.34;5411304;26;34630;-89
2022/05/01 02:09:17;;;;;;;;;;;;;;;16.35;46.38;99884.44;5409883;26;34802;-89
2022/05/01 02:11:47;;;;;;;;;;;;;;;16.21;46.53;99877.94;5404410;26;33951;-89
2022/05/01 02:14:19;;;;;;;;;;;;;;;16.34;46.40;99875.75;5404557;26;33915;-89
2022/05/01 02:16:48;;;;;;;;;;;;;;;16.10;46.58;99880.03;5404233;26;34344;-91
2022/05/01 02:19:17;;;;;;;;;;;;;;;16.12;46.55;99880.00;5403080;26;34270;-89
2022/05/01 02:21:45;;;;;;;;;;;;;;;16.16;46.41;99877.22;5410806;26;33760;-89
2022/05/01 02:24:14;;;;;;;;;;;;;;;16.24;45.89;99869.13;5405369;26;33017;-89
2022/05/01 02:26:42;;;;;;;;;;;;;;;16.19;45.83;99874.50;5405391;26;34962;-88
2022/05/01 02:29:12;;;;;;;;;;;;;;;16.08;46.04;99871.37;5384251;26;32344;-89
2022/05/01 02:31:41;;;;;;;;;;;;;;;16.10;45.88;99872.19;5404996;26;34310;-89
2022/05/01 02:34:10;;;;;;;;;;;;;;;16.24;44.73;99879.59;5411351;26;33621;-89
2022/05/01 02:36:38;;;;;;;;;;;;;;;16.19;44.69;99874.50;5404631;26;34283;-89
2022/05/01 02:39:07;;;;;;;;;;;;;;;16.24;43.62;99873.47;5404788;26;34143;-90
2022/05/01 02:41:36;;;;;;;;;;;;;;;16.35;43.79;99873.97;5404328;26;34766;-88
2022/05/01 02:44:04;;;;;;;;;;;;;;;16.14;44.20;99878.16;5404096;26;33566;-89
2022/05/01 02:46:34;;;;;;;;;;;;;;;16.21;44.73;99877.94;5410898;26;34096;-89
2022/05/01 02:49:04;;;;;;;;;;;;;;;16.39;44.69;99876.44;5409771;26;36826;-90
2022/05/01 02:51:33;;;;;;;;;;;;;;;16.28;44.27;99885.56;5404111;26;34887;-89
2022/05/01 02:54:04;;;;;;;;;;;;;;;16.26;44.96;99879.50;5404858;26;33181;-89
2022/05/01 02:56:33;;;;;;;;;;;;;;;16.09;45.63;99874.84;5403788;26;34695;-89
2022/05/01 02:59:02;;;;;;;;;;;;;;;16.35;44.99;99876.59;5404726;26;33863;-90
2022/05/01 03:01:30;;;;;;;;;;;;;;;16.28;44.14;99873.31;5410388;26;34350;-89
2022/05/01 03:04:00;;;;;;;;;;;;;;;16.14;44.55;99879.03;5407638;26;32773;-89
2022/05/01 03:06:29;;;;;;;;;;;;;;;16.18;43.26;99870.16;5404723;26;34608;-90
2022/05/01 03:08:58;;;;;;;;;;;;;;;16.03;43.45;99865.44;5404351;26;34861;-89
2022/05/01 03:11:26;;;;;;;;;;;;;;;16.14;42.89;99867.69;5403998;26;33795;-89
2022/05/01 03:13:55;;;;;;;;;;;;;;;16.11;43.23;99873.03;5411262;26;33023;-89
2022/05/01 03:16:23;;;;;;;;;;;;;;;16.27;42.59;99869.00;5404270;26;34971;-88
2022/05/01 03:24:25;;;;;;;;;;;;;;;16.37;43.40;99882.62;5404400;26;33104;-89
2022/05/01 03:26:54;;;;;;;;;;;;;;;16.37;42.99;99887.88;5404420;26;34561;-89
2022/05/01 03:29:22;;;;;;;;;;;;;;;16.48;42.93;99882.25;5410852;26;35151;-89
2022/05/01 03:31:52;;;;;;;;;;;;;;;16.41;43.12;99889.50;5404237;26;34473;-89
2022/05/01 03:34:22;;;;;;;;;;;;;;;16.31;43.29;99882.84;5404649;26;32674;-89
2022/05/01 03:36:53;;;;;;;;;;;;;;;16.29;43.40;99884.69;5404289;26;34158;-89
2022/05/01 03:39:22;;;;;;;;;;;;;;;16.33;42.08;99888.88;5404315;26;33866;-89
2022/05/01 03:41:50;;;;;;;;;;;;;;;16.35;42.01;99887.06;5405670;26;33882;-89
2022/05/01 03:44:19;;;;;;;;;;;;;;;16.27;42.76;99892.56;5409430;26;33318;-89
2022/05/01 03:46:47;;;;;;;;;;;;;;;16.28;43.54;99896.03;5404032;26;34312;-89
2022/05/01 03:49:16;;;;;;;;;;;;;;;16.43;42.66;99892.91;5403805;26;34231;-89
2022/05/01 03:51:46;;;;;;;;;;;;;;;16.12;43.58;99893.94;5404329;26;33923;-89
2022/05/01 03:54:16;;;;;;;;;;;;;;;16.11;43.50;99896.59;5404337;26;33799;-88
2022/05/01 03:56:44;;;;;;;;;;;;;;;16.12;43.74;99893.09;5411101;26;34169;-89
2022/05/01 03:59:13;;;;;;;;;;;;;;;15.87;44.04;99895.63;5402665;26;34281;-89
2022/05/01 04:01:42;;;;;;;;;;;;;;;15.90;44.00;99896.38;5404043;26;34134;-89
2022/05/01 04:04:11;;;;;;;;;;;;;;;16.06;43.62;99901.97;5404269;26;34048;-89
2022/05/01 04:06:40;;;;;;;;;;;;;;;16.08;43.73;99902.78;5404470;26;33964;-89
2022/05/01 04:09:08;;;;;;;;;;;;;;;16.16;43.96;99906.03;5411274;26;34313;-89
2022/05/01 04:11:38;;;;;;;;;;;;;;;16.28;43.86;99903.88;5405302;26;34898;-89
2022/05/01 04:14:07;;;;;;;;;;;;;;;16.32;43.88;99908.13;5404609;26;33113;-89
2022/05/01 04:16:35;;;;;;;;;;;;;;;16.16;44.42;99913.00;5403990;26;34306;-90
2022/05/01 04:19:04;;;;;;;;;;;;;;;16.19;44.27;99911.16;5404401;26;35021;-90
2022/05/01 04:21:32;;;;;;;;;;;;;;;16.00;44.12;99910.03;5410092;26;34547;-89
2022/05/01 04:24:01;;;;;;;;;;;;;;;16.04;44.72;99913.41;5404382;26;33447;-89
2022/05/01 04:26:29;;;;;;;;;;;;;;;16.20;44.33;99912.84;5403857;26;33926;-88
2022/05/01 04:31:45;;;;;;;;;;;;;;;16.17;44.46;99912.97;5404138;26;34275;-89
2022/05/01 04:34:14;;;;;;;;;;;;;;;16.13;45.14;99915.72;5404150;26;33277;-90
2022/05/01 04:36:43;;;;;;;;;;;;;;;16.14;44.67;99918.31;5410373;26;33988;-89
2022/05/01 04:39:11;;;;;;;;;;;;;;;16.27;44.21;99917.91;5404154;26;34276;-89
2022/05/01 04:41:40;;;;;;;;;;;;;;;16.21;44.38;99925.06;5404018;26;34007;-89
2022/05/01 04:44:10;;;;;;;;;;;;;;;16.37;44.45;99924.53;5404729;26;33381;-90
2022/05/01 04:46:38;;;;;;;;;;;;;;;16.12;44.25;99921.88;5404592;26;33837;-88
2022/05/01 04:49:07;;;;;;;;;;;;;;;16.17;43.97;99920.81;5410029;26;34146;-88
2022/05/01 04:51:35;;;;;;;;;;;;;;;16.03;44.35;99925.63;5405039;26;34892;-89
2022/05/01 04:54:04;;;;;;;;;;;;;;;16.14;44.51;99922.66;5403077;26;34148;-89
2022/05/01 04:59:20;;;;;;;;;;;;;;;16.06;44.66;99927.28;5404246;26;33972;-89
2022/05/01 05:01:48;;;;;;;;;;;;;;;16.28;44.36;99930.91;5403942;26;34399;-89
2022/05/01 05:04:17;;;;;;;;;;;;;;;16.33;44.79;99928.16;5410533;26;34174;-89
2022/05/01 05:06:45;;;;;;;;;;;;;;;16.83;43.84;99928.22;5404651;26;33996;-89
2022/05/01 05:12:03;;;;;;;;;;;;;;;16.89;43.17;99927.16;5405109;26;33680;-90
2022/05/01 05:14:33;;;;;;;;;;;;;;;16.98;43.27;99930.28;5405835;26;32949;-89
2022/05/01 05:17:06;;;;;;;;;;;;;;;17.10;42.67;99934.25;5405432;26;34151;-89
2022/05/01 05:19:35;;;;;;;;;;;;;;;17.20;42.76;99930.41;5411102;26;33579;-89
2022/05/01 05:22:04;;;;;;;;;;;;;;;16.86;43.27;99935.97;5405982;26;34672;-89
2022/05/01 05:24:32;;;;;;;;;;;;;;;17.40;42.35;99937.53;5406286;26;33404;-89
2022/05/01 05:27:01;;;;;;;;;;;;;;;17.09;43.11;99942.19;5405842;26;35193;-89
2022/05/01 05:29:30;;;;;;;;;;;;;;;17.32;42.59;99936.09;5405961;26;35012;-89
2022/05/01 05:32:00;;;;;;;;;;;;;;;17.36;42.65;99932.44;5410958;26;34556;-89
2022/05/01 05:34:29;;;;;;;;;;;;;;;17.02;42.87;99939.78;5406467;26;32903;-89
2022/05/01 05:36:57;;;;;;;;;;;;;;;17.27;42.28;99934.47;5405811;26;34004;-89
2022/05/01 05:39:26;;;;;;;;;;;;;;;17.28;42.34;99937.97;5405873;26;34882;-90
2022/05/01 05:41:54;;;;;;;;;;;;;;;17.02;42.80;99941.53;5406450;26;33839;-89
2022/05/01 05:44:23;;;;;;;;;;;;;;;17.02;42.88;99944.16;5390806;26;31787;-89
2022/05/01 05:46:51;;;;;;;;;;;;;;;16.90;43.54;99949.84;5405688;26;34758;-90
2022/05/01 05:49:21;;;;;;;;;;;;;;;17.22;43.03;99953.94;5406347;26;33845;-89
2022/05/01 05:51:50;;;;;;;;;;;;;;;17.03;43.29;99956.34;5406202;26;34096;-89
2022/05/01 05:54:18;;;;;;;;;;;;;;;17.57;42.30;99957.03;5406532;26;33763;-89
2022/05/01 05:56:47;;;;;;;;;;;;;;;17.24;42.90;99949.50;5407507;26;33919;-89
2022/05/01 05:59:18;;;;;;;;;;;;;;;17.44;42.53;99960.09;5411541;26;34243;-89
2022/05/01 06:01:46;;;;;;;;;;;;;;;17.24;42.45;99958.19;5405951;26;34895;-90
2022/05/01 06:04:15;;;;;;;;;;;;;;;16.97;42.85;99965.28;5406606;26;34024;-89
2022/05/01 06:06:45;;;;;;;;;;;;;;;17.00;42.11;99962.56;5406774;26;34076;-90
2022/05/01 06:09:13;;;;;;;;;;;;;;;17.04;42.88;99965.94;5407473;26;34520;-89
2022/05/01 06:11:42;;;;;;;;;;;;;;;16.88;42.86;99968.22;5410161;26;34107;-90
2022/05/01 06:14:10;;;;;;;;;;;;;;;17.21;42.54;99963.56;5406009;26;33782;-89
2022/05/01 06:16:39;;;;;;;;;;;;;;;17.37;42.68;99963.00;5406255;26;34142;-89
2022/05/01 06:19:07;;;;;;;;;;;;;;;17.17;42.77;99967.19;5405525;26;34094;-90
2022/05/01 06:21:36;;;;;;;;;;;;;;;17.25;43.08;99967.78;5406496;26;34269;-89
2022/05/01 06:24:07;;;;;;;;;;;;;;;17.36;42.50;99966.53;5410868;26;34191;-89
2022/05/01 06:26:36;;;;;;;;;;;;;;;17.35;42.45;99965.69;5386194;26;34276;-89
2022/05/01 06:29:04;;;;;;;;;;;;;;;17.75;41.65;99971.22;5406818;26;34584;-90
2022/05/01 06:31:33;;;;;;;;;;;;;;;17.66;42.02;99965.41;5386219;26;34889;-89
2022/05/01 06:34:22;;;;;;;;;;;;;;;17.75;41.84;99974.69;5386896;26;34398;-90
2022/05/01 06:41:32;;;;;;;;;;;;;;;18.08;40.93;99967.31;5378684;26;34090;-89
2022/05/01 06:45:16;;;;;;;;;;;;;;;18.24;40.98;99974.56;5385690;26;34958;-90
2022/05/01 09:01:04;;;;;;;;;;;;;;;22.41;33.02;99912.91;5125784;28;35257;-89
2022/05/01 09:30:09;;;;;;;;;;;;;;;22.74;31.57;99897.69;5100427;27;33802;-89
2022/05/01 09:32:38;;;;;;;;;;;;;;;22.61;33.42;99899.34;5138631;27;33319;-88
2022/05/01 09:35:08;;;;;;;;;;;;;;;22.95;33.00;99898.19;5126206;27;33241;-89
2022/05/01 09:37:36;;;;;;;;;;;;;;;22.61;31.82;99895.84;5120299;28;34858;-88
2022/05/01 09:40:05;;;;;;;;;;;;;;;22.71;32.97;99897.88;5126005;28;33780;-88
2022/05/01 09:42:35;;;;;;;;;;;;;;;22.72;31.26;99899.56;5168610;27;34232;-89
2022/05/01 09:45:04;;;;;;;;;;;;;;;22.82;31.53;99902.50;5181332;27;33604;-88
2022/05/01 09:47:37;;;;;;;;;;;;;;;22.96;31.52;99897.22;5209893;27;34111;-88
2022/05/01 09:50:06;;;;;;;;;;;;;;;22.97;31.96;99882.19;5324072;26;33985;-89
2022/05/01 09:52:54;;;;;;;;;;;;;;;22.76;31.08;99894.91;5338719;26;34274;-88
2022/05/01 09:55:23;;;;;;;;;;;;;;;22.57;29.95;99881.97;5339616;26;33267;-89
2022/05/01 09:58:02;;;;;;;;;;;;;;;22.54;32.55;99890.06;5334286;26;34330;-88
2022/05/01 10:00:44;;;;;;;;;;;;;;;22.94;32.04;99880.59;5333032;26;33822;-88
2022/05/01 10:03:22;;;;;;;;;;;;;;;23.29;31.18;99884.66;5332239;26;33772;-88
2022/05/01 10:05:53;;;;;;;;;;;;;;;23.53;30.71;99882.25;5334217;26;32859;-90
2022/05/01 14:56:01;;;;;;;;;;;;;;;28.60;20.43;99625.72;5354807;26;33998;-90
2022/05/01 16:30:45;;;;;;;;;;;;;;;28.94;20.62;99581.63;5407934;26;19983;-94
2022/05/01 16:33:16;;;;;;;;;;;;;;;28.34;21.15;99580.81;5410426;26;32751;-91
2022/05/01 16:35:44;;;;;;;;;;;;;;;27.96;22.14;99571.72;5425947;26;33055;-89
2022/05/01 16:38:13;;;;;;;;;;;;;;;27.83;21.60;99582.59;5425087;26;35131;-91
2022/05/01 16:40:42;;;;;;;;;;;;;;;27.61;22.58;99586.25;5426190;26;33563;-92
2022/05/01 16:43:12;;;;;;;;;;;;;;;27.48;23.95;99580.28;5405593;26;34526;-92
2022/05/01 16:45:43;;;;;;;;;;;;;;;27.34;24.33;99588.63;5426665;26;33179;-92
2022/05/01 17:01:28;;;;;;;;;;;;;;;25.29;26.05;99582.78;5409827;26;34685;-92
2022/05/01 17:03:58;;;;;;;;;;;;;;;24.99;26.31;99592.06;5433569;26;33879;-92
2022/05/01 17:06:29;;;;;;;;;;;;;;;24.74;26.62;99598.34;5426945;26;34028;-90
2022/05/01 18:33:15;;;;;;;;;;;;;;;20.16;36.05;99645.66;5407393;26;35721;-90
2022/05/01 18:36:23;;;;;;;;;;;;;;;20.07;36.25;99646.12;5387683;26;33259;-90
2022/05/01 18:49:04;;;;;;;;;;;;;;;19.68;36.85;99655.19;5244319;27;33460;-89
2022/05/01 18:51:34;;;;;;;;;;;;;;;19.48;37.54;99656.19;5252002;27;35104;-89
2022/05/01 18:54:03;;;;;;;;;;;;;;;19.41;37.99;99660.03;5243567;27;36409;-90
2022/05/01 18:56:32;;;;;;;;;;;;;;;19.55;37.54;99657.56;5227501;27;33892;-90
2022/05/01 18:59:00;;;;;;;;;;;;;;;19.49;38.01;99663.13;5245023;27;32947;-90
2022/05/01 19:01:32;;;;;;;;;;;;;;;19.31;38.72;99667.53;5247483;27;34047;-92
2022/05/01 19:17:39;;;;;;;;;;;;;;;18.82;38.74;99684.81;5201916;27;34397;-90
2022/05/01 19:42:59;;;;;;;;;;;;;;;18.36;40.33;99689.53;5370975;26;20023;-89
2022/05/01 19:45:38;;;;;;;;;;;;;;;18.21;40.03;99696.34;5395978;26;34193;-92
2022/05/01 19:58:38;;;;;;;;;;;;;;;17.78;41.02;99698.19;5310945;27;35765;-90
2022/05/01 20:04:33;;;;;;;;;;;;;;;17.91;40.79;99692.38;5221847;27;34562;-90
2022/05/01 20:07:04;;;;;;;;;;;;;;;17.76;41.73;99692.12;5223889;27;33684;-90
2022/05/01 20:16:04;;;;;;;;;;;;;;;17.66;42.86;99686.44;5142439;27;34892;-90
2022/05/01 20:18:36;;;;;;;;;;;;;;;17.58;42.68;99692.00;5159814;27;34738;-90
2022/05/01 20:21:09;;;;;;;;;;;;;;;17.53;43.28;99687.87;5160367;27;33749;-90
2022/05/01 20:23:39;;;;;;;;;;;;;;;17.51;43.10;99689.72;5224785;27;32839;-90
2022/05/01 20:26:15;;;;;;;;;;;;;;;17.42;43.28;99690.94;5224224;27;34060;-90
2022/05/01 20:32:43;;;;;;;;;;;;;;;17.38;43.28;99692.84;5164632;27;33994;-90
2022/05/01 20:38:21;;;;;;;;;;;;;;;17.38;42.46;99684.97;5202189;27;35933;-90
2022/05/01 20:40:50;;;;;;;;;;;;;;;17.32;43.00;99684.34;5206582;27;33368;-89
2022/05/01 20:46:56;;;;;;;;;;;;;;;17.27;42.99;99684.53;5251194;27;33431;-91
2022/05/01 20:49:37;;;;;;;;;;;;;;;17.22;43.19;99684.72;5343427;26;33823;-91
2022/05/01 20:52:12;;;;;;;;;;;;;;;17.00;43.66;99683.91;5381074;26;34054;-89
2022/05/01 20:54:44;;;;;;;;;;;;;;;16.85;43.74;99680.13;5380312;26;33498;-90
2022/05/01 21:00:42;;;;;;;;;;;;;;;17.08;43.54;99680.97;5385725;26;33189;-91
2022/05/01 21:10:41;;;;;;;;;;;;;;;16.86;43.59;99671.34;5219712;27;33773;-90
2022/05/01 21:13:12;;;;;;;;;;;;;;;17.08;42.84;99680.97;5223935;27;34017;-90
2022/05/01 21:15:56;;;;;;;;;;;;;;;16.85;43.19;99673.09;5228607;27;35014;-89
2022/05/01 21:18:25;;;;;;;;;;;;;;;16.69;43.50;99678.97;5223392;27;34328;-89
2022/05/01 21:21:31;;;;;;;;;;;;;;;17.02;41.79;99675.06;5205440;27;33793;-90
2022/05/01 21:24:03;;;;;;;;;;;;;;;17.06;41.79;99675.81;5220619;27;34193;-90
2022/05/01 21:45:19;;;;;;;;;;;;;;;16.60;43.96;99665.31;5082835;28;34857;-90
2022/05/01 21:48:00;;;;;;;;;;;;;;;16.67;43.32;99660.69;5100011;28;34100;-91
2022/05/01 22:37:36;;;;;;;;;;;;;;;16.15;44.70;99666.13;5079586;28;34604;-89
2022/05/01 22:40:31;;;;;;;;;;;;;;;16.41;43.63;99656.47;5119850;28;33125;-89
2022/05/01 22:43:36;;;;;;;;;;;;;;;;;;;;;
2022/05/01 22:56:49;;;;;;;;;;;;;;;16.25;45.30;99652.69;5114097;28;34135;-90
2022/05/01 22:59:17;;;;;;;;;;;;;;;16.22;45.00;99651.06;5232719;27;33941;-90
2022/05/01 23:01:56;;;;;;;;;;;;;;;16.23;45.18;99654.50;5240667;27;33949;-90
2022/05/01 23:04:47;;;;;;;;;;;;;;;16.28;45.34;99647.34;5241048;27;33065;-89
2022/05/01 23:07:16;;;;;;;;;;;;;;;16.44;45.13;99648.47;5250247;27;34153;-89
2022/05/01 23:09:49;;;;;;;;;;;;;;;16.32;45.56;99643.72;5247081;27;35624;-90
2022/05/01 23:33:03;;;;;;;;;;;;;;;16.24;45.38;99635.28;5161311;27;34929;-90
2022/05/01 23:35:33;;;;;;;;;;;;;;;16.22;44.71;99627.50;5160031;27;34781;-90
2022/05/01 23:38:11;;;;;;;;;;;;;;;16.28;45.30;99626.41;5163880;27;34740;-90
2022/05/01 23:40:40;;;;;;;;;;;;;;;16.24;44.08;99619.56;5165768;27;34048;-91
2022/05/01 23:43:09;;;;;;;;;;;;;;;16.36;43.21;99624.38;5161097;27;33634;-90
2022/05/01 23:45:38;;;;;;;;;;;;;;;16.31;43.95;99618.44;5174961;27;34321;-90
2022/05/01 23:51:03;;;;;;;;;;;;;;;16.15;44.61;99613.78;5203542;27;34051;-90
2022/05/01 23:53:33;;;;;;;;;;;;;;;16.12;44.48;99613.91;5203379;27;34618;-89
2022/05/01 23:56:07;;;;;;;;;;;;;;;16.02;44.95;99609.91;5207999;27;33231;-91
2022/05/01 23:59:11;;;;;;;;;;;;;;;16.07;44.99;99620.19;5215300;27;34947;-90
